Flight Track Log - Related Links

Times and Time Zones

All times are in EDT time to prevent confusion due to time zone crossing. See the GGN7321 flight status page for this flight to view local times or setup timezone preferences in your user account.

Time Position Orientation Groundspeed Altitude Reporting Facility
EDT Latitude Longitude Course Direction KTS km/h feet Rate Location/Type
Fri 21:21:34 44.8500 -63.5000 245° Southwest 110 204 900  Level Moncton Center
Fri 21:22:34 44.8333 -63.5500 245° Southwest 130 241 2.500 1.500 Climbing Moncton Center
Fri 21:23:34 44.8833 -63.5667 347° North 200 370 3.900 1.350 Climbing Moncton Center
Fri 21:24:34 44.9167 -63.6167 313° West 200 370 5.200 1.400 Climbing Moncton Center
Fri 21:25:34 44.9833 -63.6667 332° Northwest 210 389 6.700 1.300 Climbing Moncton Center
Fri 21:26:34 45.0333 -63.6833 347° North 220 407 7.800 1.250 Climbing Moncton Center
Fri 21:27:34 45.0833 -63.7333 325° Northwest 210 389 9.200 1.150 Climbing Moncton Center
Fri 21:28:34 45.1333 -63.7833 325° Northwest 220 407 10.100 1.000 Climbing Moncton Center
Fri 21:29:34 45.2000 -63.8333 332° Northwest 230 426 11.200 950 Climbing Moncton Center
Fri 21:30:34 45.2500 -63.8500 347° North 230 426 12.000 450 Climbing Moncton Center
Fri 21:31:34 45.3000 -63.9000 325° Northwest 240 444 12.100 50 Climbing Moncton Center
Fri 21:32:34 45.3667 -63.9667 325° Northwest 250 463 12.100  Level Moncton Center
Fri 21:33:34 45.4333 -64.0000 341° North 250 463 12.100  Level Moncton Center
Fri 21:34:34 45.5000 -64.0333 341° North 250 463 12.100 -50 Level Moncton Center
Fri 21:35:34 45.5667 -64.0833 332° Northwest 260 481 12.000  Descending Moncton Center
Fri 21:36:34 45.6167 -64.1333 325° Northwest 250 463 12.100 50 Climbing Moncton Center
Fri 21:37:34 45.7000 -64.1833 337° Northwest 250 463 12.100 -50 Level Moncton Center
Fri 21:38:34 45.7667 -64.2333 332° Northwest 260 481 12.000 -100 Descending Moncton Center
Fri 21:39:34 45.8333 -64.2500 350° North 260 481 11.900 -1.000 Descending Moncton Center
Fri 21:40:34 45.9167 -64.3000 337° Northwest 280 518 10.000 -1.500 Descending Moncton Center
Fri 21:41:34 45.9833 -64.3167 350° North 290 538 8.900 -1.450 Descending Moncton Center
Fri 21:42:34 46.0667 -64.3500 344° North 270 501 7.100 -1.850 Descending Moncton Center
Fri 21:43:34 46.1333 -64.3667 350° North 260 481 5.200 -2.000 Descending Moncton Center
Fri 21:44:34 46.2000 -64.4167 333° Northwest 250 463 3.100 -1.350 Descending Moncton Center
Fri 21:45:34 46.2500 -64.4500 335° Northwest 210 389 2.500 -450 Descending Moncton Center
Fri 21:46:34 46.2167 -64.5000 226° Southwest 140 259 2.200 -500 Descending Moncton Center
Fri 21:47:34 46.2000 -64.5500 244° Southwest 130 241 1.500 -350 Descending Moncton Center
Fri 21:48:34 46.1833 -64.5667 215° Southwest 130 241 1.500 -150 Level Moncton Center
Fri 21:49:34 46.1500 -64.6167 226° Southwest 130 241 1.200 -350 Descending Moncton Center
Fri 21:50:34 46.1333 -64.6333 215° Southwest 110 204 800 -450 Descending Moncton Center
Fri 21:51:34 46.1167 -64.6667 234° Southwest 110 204 300 -250 Descending Moncton Center
Fri 21:52:34 46.1000 -64.6833 215° Southwest 40 74 300  Level Moncton Center

Login

Don't have an account? Register now (free) for customized features, flight alerts, and more!